Map

Track Data

SID SEASON NUMBER BASIN SUBBASIN NAME ISO_TIME NATURE LAT LON WMO_WIND WMO_PRES WMO_AGENCY TRACK_TYPE DIST2LAND LANDFALL IFLAG USA_AGENCY USA_ATCF_ID USA_LAT USA_LON USA_RECORD USA_STATUS USA_WIND USA_PRES USA_SSHS USA_R34_NE USA_R34_SE USA_R34_SW USA_R34_NW USA_R50_NE USA_R50_SE USA_R50_SW USA_R50_NW USA_R64_NE USA_R64_SE USA_R64_SW USA_R64_NW USA_POCI USA_ROCI USA_RMW USA_EYE TOKYO_LAT TOKYO_LON TOKYO_GRADE TOKYO_WIND TOKYO_PRES TOKYO_R50_DIR TOKYO_R50_LONG TOKYO_R50_SHORT TOKYO_R30_DIR TOKYO_R30_LONG TOKYO_R30_SHORT TOKYO_LAND CMA_LAT CMA_LON CMA_CAT CMA_WIND CMA_PRES HKO_LAT HKO_LON HKO_CAT HKO_WIND HKO_PRES NEWDELHI_LAT NEWDELHI_LON NEWDELHI_GRADE NEWDELHI_WIND NEWDELHI_PRES NEWDELHI_CI NEWDELHI_DP NEWDELHI_POCI REUNION_LAT REUNION_LON REUNION_TYPE REUNION_WIND REUNION_PRES REUNION_TNUM REUNION_CI REUNION_RMW REUNION_R34_NE REUNION_R34_SE REUNION_R34_SW REUNION_R34_NW REUNION_R50_NE REUNION_R50_SE REUNION_R50_SW REUNION_R50_NW REUNION_R64_NE REUNION_R64_SE REUNION_R64_SW REUNION_R64_NW BOM_LAT BOM_LON BOM_TYPE BOM_WIND BOM_PRES BOM_TNUM BOM_CI BOM_RMW BOM_R34_NE BOM_R34_SE BOM_R34_SW BOM_R34_NW BOM_R50_NE BOM_R50_SE BOM_R50_SW BOM_R50_NW BOM_R64_NE BOM_R64_SE BOM_R64_SW BOM_R64_NW BOM_ROCI BOM_POCI BOM_EYE BOM_POS_METHOD BOM_PRES_METHOD NADI_LAT NADI_LON NADI_CAT NADI_WIND NADI_PRES WELLINGTON_LAT WELLINGTON_LON WELLINGTON_WIND WELLINGTON_PRES DS824_LAT DS824_LON DS824_STAGE DS824_WIND DS824_PRES TD9636_LAT TD9636_LON TD9636_STAGE TD9636_WIND TD9636_PRES TD9635_LAT TD9635_LON TD9635_WIND TD9635_PRES TD9635_ROCI NEUMANN_LAT NEUMANN_LON NEUMANN_CLASS NEUMANN_WIND NEUMANN_PRES MLC_LAT MLC_LON MLC_CLASS MLC_WIND MLC_PRES USA_GUST BOM_GUST BOM_GUST_PER REUNION_GUST REUNION_GUST_PER USA_SEAHGT USA_SEARAD_NE USA_SEARAD_SE USA_SEARAD_SW USA_SEARAD_NW STORM_SPEED STORM_DIR
1906248N12134 1906 31 WP MM NOT_NAMED 1906-09-04 16:00:00 NR 12.2000 133.600 main 860 830 __________O___ -1 12.2000 133.600 7 11 298
1906248N12134 1906 31 WP MM NOT_NAMED 1906-09-04 18:00:00 NR 12.3706 133.271 main 832 783 __________P___ -1 12.3706 133.271 7 11 298
1906248N12134 1906 31 WP MM NOT_NAMED 1906-09-04 21:00:00 NR 12.6246 132.782 main 783 738 __________P___ -1 12.6246 132.782 7 11 298
1906248N12134 1906 31 WP MM NOT_NAMED 1906-09-05 00:00:00 NR 12.8749 132.305 main 738 691 __________P___ -1 12.8749 132.305 7 10 299
1906248N12134 1906 31 WP MM NOT_NAMED 1906-09-05 03:00:00 NR 13.1198 131.847 main 691 682 __________P___ -1 13.1198 131.847 7 10 299
1906248N12134 1906 31 WP MM NOT_NAMED 1906-09-05 04:00:00 NR 13.2000 131.700 main 682 651 __________O___ -1 13.2000 131.700 7 10 300
1906248N12134 1906 31 WP MM NOT_NAMED 1906-09-05 06:00:00 NR 13.3584 131.415 main 654 616 __________P___ -1 13.3584 131.415 7 9 300
1906248N12134 1906 31 WP MM NOT_NAMED 1906-09-05 09:00:00 NR 13.5961 131.001 main 616 581 __________P___ -1 13.5961 131.001 7 9 301
1906248N12134 1906 31 WP MM NOT_NAMED 1906-09-05 12:00:00 NR 13.8423 130.587 main 581 551 __________P___ -1 13.8423 130.587 7 10 302
1906248N12134 1906 31 WP MM NOT_NAMED 1906-09-05 15:00:00 NR 14.1064 130.152 main 551 536 __________P___ -1 14.1064 130.152 7 10 302
1906248N12134 1906 31 WP MM NOT_NAMED 1906-09-05 16:00:00 NR 14.2000 130.000 main 536 517 __________O___ -1 14.2000 130.000 3 11 302
1906248N12134 1906 31 WP MM NOT_NAMED 1906-09-05 18:00:00 NR 14.4021 129.673 main 517 488 __________P___ -1 14.4021 129.673 3 12 303
1906248N12134 1906 31 WP MM NOT_NAMED 1906-09-05 21:00:00 NR 14.7243 129.157 main 488 466 __________P___ -1 14.7243 129.157 3 12 303
1906248N12134 1906 31 WP MM NOT_NAMED 1906-09-06 00:00:00 NR 15.0582 128.622 main 466 432 __________P___ -1 15.0582 128.622 3 12 303
1906248N12134 1906 31 WP MM NOT_NAMED 1906-09-06 03:00:00 NR 15.3913 128.080 main 432 417 __________P___ -1 15.3913 128.080 3 12 302
1906248N12134 1906 31 WP MM NOT_NAMED 1906-09-06 04:00:00 NR 15.5000 127.900 main 417 389 __________O___ -1 15.5000 127.900 4 12 300
1906248N12134 1906 31 WP MM NOT_NAMED 1906-09-06 06:00:00 NR 15.6950 127.544 main 389 365 __________P___ -1 15.6950 127.544 4 12 299
1906248N12134 1906 31 WP MM NOT_NAMED 1906-09-06 09:00:00 NR 15.9812 127.011 main 365 341 __________P___ -1 15.9812 127.011 4 12 300
1906248N12134 1906 31 WP MM NOT_NAMED 1906-09-06 12:00:00 NR 16.2736 126.483 main 349 337 __________P___ -1 16.2736 126.483 4 12 301
1906248N12134 1906 31 WP MM NOT_NAMED 1906-09-06 15:00:00 NR 16.5877 125.968 main 343 337 __________P___ -1 16.5877 125.968 4 12 303
1906248N12134 1906 31 WP MM NOT_NAMED 1906-09-06 16:00:00 NR 16.7000 125.800 main 342 319 __________O___ -1 16.7000 125.800 4 12 307
1906248N12134 1906 31 WP MM NOT_NAMED 1906-09-06 18:00:00 NR 16.9487 125.469 main 319 267 __________P___ -1 16.9487 125.469 4 12 310
1906248N12134 1906 31 WP MM NOT_NAMED 1906-09-06 21:00:00 NR 17.3475 124.986 main 267 226 __________P___ -1 17.3475 124.986 4 12 312
1906248N12134 1906 31 WP MM NOT_NAMED 1906-09-07 00:00:00 NR 17.7603 124.514 main 229 190 __________P___ -1 17.7603 124.514 4 12 313
1906248N12134 1906 31 WP MM NOT_NAMED 1906-09-07 03:00:00 NR 18.1683 124.052 main 190 168 __________P___ -1 18.1683 124.052 4 12 313
1906248N12134 1906 31 WP MM NOT_NAMED 1906-09-07 04:00:00 NR 18.3000 123.900 main 168 137 __________O___ -1 18.3000 123.900 4 12 311
1906248N12134 1906 31 WP MM NOT_NAMED 1906-09-07 06:00:00 NR 18.5444 123.594 main 137 101 __________P___ -1 18.5444 123.594 4 11 310
1906248N12134 1906 31 WP MM NOT_NAMED 1906-09-07 09:00:00 NR 18.8987 123.141 main 101 94 __________P___ -1 18.8987 123.141 4 11 309
1906248N12134 1906 31 WP MM NOT_NAMED 1906-09-07 12:00:00 NR 19.2437 122.694 main 98 105 __________P___ -1 19.2437 122.694 4 11 309
1906248N12134 1906 31 WP MM NOT_NAMED 1906-09-07 15:00:00 NR 19.5856 122.248 main 134 134 __________P___ -1 19.5856 122.248 4 11 309
1906248N12134 1906 31 WP MM NOT_NAMED 1906-09-07 16:00:00 NR 19.7000 122.100 main 145 145 __________O___ -1 19.7000 122.100 4 11 309
1906248N12134 1906 31 WP MM NOT_NAMED 1906-09-07 18:00:00 NR 19.9385 121.787 main 162 170 __________P___ -1 19.9385 121.787 4 11 309
1906248N12134 1906 31 WP MM NOT_NAMED 1906-09-07 21:00:00 NR 20.2966 121.317 main 183 145 __________P___ -1 20.2966 121.317 4 11 309
1906248N12134 1906 31 WP MM NOT_NAMED 1906-09-08 00:00:00 NR 20.6492 120.860 main 145 102 __________P___ -1 20.6492 120.860 4 11 310
1906248N12134 1906 31 WP MM NOT_NAMED 1906-09-08 03:00:00 NR 20.9901 120.433 main 105 98 __________P___ -1 20.9901 120.433 4 10 311
1906248N12134 1906 31 WP MM NOT_NAMED 1906-09-08 04:00:00 NR 21.1000 120.300 main 98 91 __________O___ -1 21.1000 120.300 4 10 311
1906248N12134 1906 31 WP MM NOT_NAMED 1906-09-08 06:00:00 NR 21.3059 120.044 main 98 91 __________P___ -1 21.3059 120.044 4 9 311
1906248N12134 1906 31 WP MM NOT_NAMED 1906-09-08 09:00:00 NR 21.6022 119.691 main 108 108 __________P___ -1 21.6022 119.691 4 9 313
1906248N12134 1906 31 WP MM NOT_NAMED 1906-09-08 12:00:00 NR 21.8947 119.374 main 114 114 __________P___ -1 21.8947 119.374 4 8 317
1906248N12134 1906 31 WP MM NOT_NAMED 1906-09-08 15:00:00 NR 22.1957 119.089 main 127 127 __________P___ -1 22.1957 119.089 4 8 319
1906248N12134 1906 31 WP MM NOT_NAMED 1906-09-08 16:00:00 NR 22.3000 119.000 main 135 131 __________O___ -1 22.3000 119.000 4 8 321
1906248N12134 1906 31 WP MM NOT_NAMED 1906-09-08 18:00:00 NR 22.5139 118.811 main 147 143 __________P___ -1 22.5139 118.811 4 8 323
1906248N12134 1906 31 WP MM NOT_NAMED 1906-09-08 21:00:00 NR 22.8474 118.553 main 143 90 __________P___ -1 22.8474 118.553 4 8 327
1906248N12134 1906 31 WP MM NOT_NAMED 1906-09-09 00:00:00 NR 23.1987 118.331 main 90 45 __________P___ -1 23.1987 118.331 4 8 333
1906248N12134 1906 31 WP MM NOT_NAMED 1906-09-09 03:00:00 NR 23.5708 118.150 main 45 37 __________P___ -1 23.5708 118.150 4 8 337
1906248N12134 1906 31 WP MM NOT_NAMED 1906-09-09 04:00:00 NR 23.7000 118.100 main 37 10 __________O___ -1 23.7000 118.100 4 8 341
1906248N12134 1906 31 WP MM NOT_NAMED 1906-09-09 06:00:00 NR 23.9661 118.000 main 10 0 __________P___ -1 23.9661 118.000 4 9 344
1906248N12134 1906 31 WP MM NOT_NAMED 1906-09-09 09:00:00 NR 24.3842 117.888 main 10 0 __________P___ -1 24.3842 117.888 4 9 349
1906248N12134 1906 31 WP MM NOT_NAMED 1906-09-09 12:00:00 NR 24.8169 117.820 main 0 0 __________P___ -1 24.8169 117.820 4 9 355
1906248N12134 1906 31 WP MM NOT_NAMED 1906-09-09 15:00:00 NR 25.2546 117.798 main 0 0 __________P___ -1 25.2546 117.798 4 9 0
1906248N12134 1906 31 WP MM NOT_NAMED 1906-09-09 16:00:00 NR 25.4000 117.800 main 0 0 __________O___ -1 25.4000 117.800 4 9 0
1906248N12134 1906 31 WP MM NOT_NAMED 1906-09-09 18:00:00 NR 25.6885 117.819 main 0 0 __________P___ -1 25.6885 117.819 4 9 6
1906248N12134 1906 31 WP MM NOT_NAMED 1906-09-09 21:00:00 NR 26.1162 117.878 main 0 0 __________P___ -1 26.1162 117.878 4 9 9
1906248N12134 1906 31 WP MM NOT_NAMED 1906-09-10 00:00:00 NR 26.5394 117.964 main 0 0 __________P___ -1 26.5394 117.964 4 9 11
1906248N12134 1906 31 WP MM NOT_NAMED 1906-09-10 03:00:00 NR 26.9600 118.065 main 0 0 __________P___ -1 26.9600 118.065 4 9 12
1906248N12134 1906 31 WP MM NOT_NAMED 1906-09-10 04:00:00 NR 27.1000 118.100 main 0 __________O___ -1 27.1000 118.100 4 9 19

Digital Typhoon Data and Search

About IBTrACS Database

This database is a web-friendly format of International Best Track Archive for Climate Stewardship (IBTrACS), a global best track data archive curated by NOAA dating back to 1842.

Updated: 2021-12-03